Time;durP1;ratioP1;P1;durP2;ratioP2;P2;SDS_P1;SDS_P2;PMS_P1;PMS_P2;Temp;Humidity;BMP_temperature;BMP_pressure;BME280_temperature;BME280_humidity;BME280_pressure;Samples;Min_cycle;Max_cycle;Signal;HPM_P1;HPM_P2
2024/02/08 00:02:20;;;;;;;2.58;0.88;;;;;;;;;;5055218;28;20482;-55
2024/02/08 00:04:47;;;;;;;1.17;0.68;;;;;;;;;;5055490;28;20025;-56
2024/02/08 00:07:13;;;;;;;1.02;0.70;;;;;;;;;;5055676;28;20029;-54
2024/02/08 00:09:39;;;;;;;0.85;0.45;;;;;;;;;;5055745;28;20336;-57
2024/02/08 00:12:05;;;;;;;0.93;0.60;;;;;;;;;;5054754;28;20532;-55
2024/02/08 00:14:31;;;;;;;1.13;0.55;;;;;;;;;;5054800;28;20036;-54
2024/02/08 00:16:57;;;;;;;1.33;0.60;;;;;;;;;;5054720;28;20070;-55
2024/02/08 00:19:22;;;;;;;0.40;0.30;;;;;;;;;;5054563;28;20041;-55
2024/02/08 00:21:50;;;;;;;0.93;0.40;;;;;;;;;;5054586;28;20033;-54
2024/02/08 00:24:16;;;;;;;1.30;0.60;;;;;;;;;;5054879;28;20023;-57
2024/02/08 00:26:42;;;;;;;2.40;0.50;;;;;;;;;;5053934;28;20025;-55
2024/02/08 00:29:08;;;;;;;1.58;0.70;;;;;;;;;;5055100;28;20056;-57
2024/02/08 00:31:34;;;;;;;0.88;0.50;;;;;;;;;;5055226;28;20597;-57
2024/02/08 00:34:00;;;;;;;1.05;0.50;;;;;;;;;;5054481;28;20029;-56
2024/02/08 00:36:26;;;;;;;0.90;0.40;;;;;;;;;;5054327;28;20029;-57
2024/02/08 00:38:53;;;;;;;2.03;0.93;;;;;;;;;;5054796;28;20086;-55
2024/02/08 00:41:23;;;;;;;1.27;0.50;;;;;;;;;;5054307;28;20029;-55
2024/02/08 00:43:49;;;;;;;0.90;0.52;;;;;;;;;;5054220;28;20028;-57
2024/02/08 00:46:15;;;;;;;0.55;0.30;;;;;;;;;;5054122;28;20040;-57
2024/02/08 00:48:43;;;;;;;0.88;0.38;;;;;;;;;;5054509;28;20032;-55
2024/02/08 00:51:09;;;;;;;1.20;0.40;;;;;;;;;;5054098;28;20029;-55
2024/02/08 00:53:35;;;;;;;0.88;0.45;;;;;;;;;;5054022;28;20071;-54
2024/02/08 00:56:02;;;;;;;1.02;0.47;;;;;;;;;;5053963;28;20080;-57
2024/02/08 00:58:28;;;;;;;1.30;0.60;;;;;;;;;;5053851;28;20034;-55
2024/02/08 01:00:54;;;;;;;1.08;0.45;;;;;;;;;;5053993;28;20355;-56
2024/02/08 01:03:24;;;;;;;1.63;0.65;;;;;;;;;;5054764;28;20112;-55
2024/02/08 01:05:52;;;;;;;0.80;0.40;;;;;;;;;;5053884;28;20501;-55
2024/02/08 01:08:18;;;;;;;0.88;0.40;;;;;;;;;;5054335;28;20056;-54
2024/02/08 01:10:44;;;;;;;3.72;0.50;;;;;;;;;;5054324;28;20025;-51
2024/02/08 01:13:11;;;;;;;0.73;0.30;;;;;;;;;;5053804;28;20074;-53
2024/02/08 01:15:37;;;;;;;1.27;0.50;;;;;;;;;;5053747;28;20035;-56
2024/02/08 01:18:03;;;;;;;0.50;0.30;;;;;;;;;;5053666;28;20021;-57
2024/02/08 01:20:29;;;;;;;0.50;0.22;;;;;;;;;;5053680;28;20094;-55
2024/02/08 01:22:57;;;;;;;0.65;0.40;;;;;;;;;;5054153;28;20025;-54
2024/02/08 01:25:23;;;;;;;0.75;0.35;;;;;;;;;;5054212;28;20057;-55
2024/02/08 01:27:49;;;;;;;1.58;0.65;;;;;;;;;;5054186;28;20025;-56
2024/02/08 01:30:15;;;;;;;1.02;0.50;;;;;;;;;;5053661;28;20021;-54
2024/02/08 01:32:41;;;;;;;1.73;0.50;;;;;;;;;;5053611;28;20032;-57
2024/02/08 01:35:10;;;;;;;0.82;0.40;;;;;;;;;;5053510;28;20116;-54
2024/02/08 01:37:38;;;;;;;0.95;0.40;;;;;;;;;;5053730;28;20098;-56
2024/02/08 01:40:06;;;;;;;1.10;0.47;;;;;;;;;;5057635;28;20033;-57
2024/02/08 01:42:34;;;;;;;1.00;0.40;;;;;;;;;;5057613;28;20025;-54
2024/02/08 01:45:23;;;;;;;1.60;0.70;;;;;;;;;;5057580;28;20029;-55
2024/02/08 01:47:49;;;;;;;0.45;0.20;;;;;;;;;;5057662;28;20112;-56
2024/02/08 01:50:15;;;;;;;1.70;0.60;;;;;;;;;;5057537;28;20029;-56
2024/02/08 01:52:43;;;;;;;1.63;0.45;;;;;;;;;;5058112;28;20025;-55
2024/02/08 01:55:10;;;;;;;1.17;0.52;;;;;;;;;;5057291;28;20021;-56
2024/02/08 01:57:36;;;;;;;1.33;0.50;;;;;;;;;;5057859;28;20021;-54
2024/02/08 02:00:02;;;;;;;0.93;0.50;;;;;;;;;;5057452;28;20025;-54
2024/02/08 02:02:35;;;;;;;2.15;0.60;;;;;;;;;;5057253;28;20352;-57
2024/02/08 02:05:01;;;;;;;1.42;0.57;;;;;;;;;;5058145;28;20036;-56
2024/02/08 02:07:28;;;;;;;0.52;0.30;;;;;;;;;;5057707;28;20029;-55
2024/02/08 02:09:55;;;;;;;0.85;0.38;;;;;;;;;;5057764;28;20044;-55
2024/02/08 02:12:22;;;;;;;0.88;0.38;;;;;;;;;;5057076;28;20108;-54
2024/02/08 02:14:48;;;;;;;1.30;0.50;;;;;;;;;;5056960;28;20033;-54
2024/02/08 02:17:16;;;;;;;0.73;0.35;;;;;;;;;;5056831;28;20028;-53
2024/02/08 02:19:42;;;;;;;0.95;0.35;;;;;;;;;;5057581;28;20079;-56
2024/02/08 02:22:08;;;;;;;1.15;0.60;;;;;;;;;;5056932;28;20528;-56
2024/02/08 02:24:36;;;;;;;1.42;0.50;;;;;;;;;;5057458;28;20039;-56
2024/02/08 02:27:03;;;;;;;0.85;0.30;;;;;;;;;;5056622;28;20120;-55
2024/02/08 02:29:29;;;;;;;0.77;0.40;;;;;;;;;;5056912;28;20028;-54
2024/02/08 02:31:55;;;;;;;1.95;0.38;;;;;;;;;;5056851;28;20425;-56
2024/02/08 02:34:25;;;;;;;0.80;0.35;;;;;;;;;;5057256;28;20025;-57
2024/02/08 02:36:53;;;;;;;1.05;0.47;;;;;;;;;;5056748;28;20032;-57
2024/02/08 02:39:25;;;;;;;1.25;0.32;;;;;;;;;;5057118;28;20399;-57
2024/02/08 02:41:51;;;;;;;0.90;0.40;;;;;;;;;;5057346;28;20483;-57
2024/02/08 02:44:17;;;;;;;0.80;0.40;;;;;;;;;;5057048;28;20102;-57
2024/02/08 02:46:43;;;;;;;0.73;0.25;;;;;;;;;;5057032;28;20455;-57
2024/02/08 02:49:09;;;;;;;0.77;0.40;;;;;;;;;;5056991;28;20040;-57
2024/02/08 02:51:36;;;;;;;0.77;0.40;;;;;;;;;;5056137;28;20025;-57
2024/02/08 02:54:02;;;;;;;1.60;0.65;;;;;;;;;;5056319;28;20032;-55
2024/02/08 02:56:28;;;;;;;0.88;0.40;;;;;;;;;;5056794;28;20052;-57
2024/02/08 02:58:54;;;;;;;3.15;0.50;;;;;;;;;;5056719;28;20033;-56
2024/02/08 03:01:21;;;;;;;0.47;0.28;;;;;;;;;;5056813;28;20092;-57
2024/02/08 03:03:48;;;;;;;1.52;0.52;;;;;;;;;;5056724;28;20504;-56
2024/02/08 03:06:14;;;;;;;1.08;0.38;;;;;;;;;;5056051;28;20040;-55
2024/02/08 03:08:41;;;;;;;0.98;0.30;;;;;;;;;;5056661;28;20037;-54
2024/02/08 03:11:10;;;;;;;1.05;0.32;;;;;;;;;;5056559;28;20036;-56
2024/02/08 03:13:38;;;;;;;0.47;0.22;;;;;;;;;;5055926;28;20113;-57
2024/02/08 03:16:05;;;;;;;0.63;0.30;;;;;;;;;;5056485;28;20474;-56
2024/02/08 03:18:32;;;;;;;1.40;0.40;;;;;;;;;;5056292;28;20037;-54
2024/02/08 03:20:58;;;;;;;1.98;0.50;;;;;;;;;;5056632;28;20029;-55
2024/02/08 03:23:26;;;;;;;0.65;0.30;;;;;;;;;;5055778;28;20035;-56
2024/02/08 03:25:52;;;;;;;1.20;0.55;;;;;;;;;;5056107;28;20033;-56
2024/02/08 03:28:18;;;;;;;1.35;0.47;;;;;;;;;;5055769;28;20459;-56
2024/02/08 03:30:44;;;;;;;1.48;0.52;;;;;;;;;;5055740;28;20033;-57
2024/02/08 03:33:15;;;;;;;1.27;0.50;;;;;;;;;;5056198;28;20029;-57
2024/02/08 03:35:45;;;;;;;2.90;0.85;;;;;;;;;;5056121;28;20036;-55
2024/02/08 03:38:11;;;;;;;0.65;0.22;;;;;;;;;;5055747;28;20170;-57
2024/02/08 03:40:37;;;;;;;0.32;0.13;;;;;;;;;;5055745;28;20059;-57
2024/02/08 03:43:04;;;;;;;1.38;0.60;;;;;;;;;;5055455;28;20032;-55
2024/02/08 03:45:31;;;;;;;0.32;0.17;;;;;;;;;;5055916;28;20031;-55
2024/02/08 03:47:59;;;;;;;0.52;0.30;;;;;;;;;;5055693;28;20025;-56
2024/02/08 03:50:25;;;;;;;0.85;0.30;;;;;;;;;;5055882;28;20025;-54
2024/02/08 03:52:51;;;;;;;0.90;0.47;;;;;;;;;;5055234;28;20024;-57
2024/02/08 03:55:26;;;;;;;0.82;0.35;;;;;;;;;;5055161;28;20025;-56
2024/02/08 03:57:52;;;;;;;2.72;0.40;;;;;;;;;;5055395;28;20025;-57
2024/02/08 04:00:27;;;;;;;3.33;0.50;;;;;;;;;;5054405;28;20025;-57
2024/02/08 04:02:54;;;;;;;1.45;0.57;;;;;;;;;;5055039;28;20025;-56
2024/02/08 04:05:26;;;;;;;1.13;0.50;;;;;;;;;;5054975;28;20025;-55
2024/02/08 04:08:02;;;;;;;0.25;0.10;;;;;;;;;;5055566;28;20451;-56
2024/02/08 04:54:17;;;;;;;0.52;0.20;;;;;;;;;;5054199;28;20070;-57
2024/02/08 04:56:46;;;;;;;0.47;0.20;;;;;;;;;;5054193;28;20049;-56
2024/02/08 04:59:12;;;;;;;0.83;0.40;;;;;;;;;;5054524;28;20033;-56
2024/02/08 05:01:38;;;;;;;0.65;0.30;;;;;;;;;;5054058;28;20056;-56
2024/02/08 05:04:04;;;;;;;0.65;0.20;;;;;;;;;;5054331;28;20067;-56
2024/02/08 05:06:30;;;;;;;0.73;0.30;;;;;;;;;;5054170;28;20451;-56
2024/02/08 05:09:00;;;;;;;0.65;0.30;;;;;;;;;;5054261;28;20516;-55
2024/02/08 05:11:29;;;;;;;0.63;0.20;;;;;;;;;;5053838;28;20021;-57
2024/02/08 05:13:59;;;;;;;0.13;0.10;;;;;;;;;;5053009;28;20528;-55
2024/02/08 05:16:26;;;;;;;2.70;0.68;;;;;;;;;;5054737;28;20028;-57
2024/02/08 05:18:53;;;;;;;1.02;0.43;;;;;;;;;;5054430;28;20029;-56
2024/02/08 05:21:19;;;;;;;0.68;0.38;;;;;;;;;;5053743;28;20104;-57
2024/02/08 05:23:47;;;;;;;1.45;0.73;;;;;;;;;;5054533;28;20032;-57
2024/02/08 05:26:18;;;;;;;0.73;0.40;;;;;;;;;;5053728;28;20033;-57
2024/02/08 05:28:44;;;;;;;0.52;0.20;;;;;;;;;;5054507;28;20033;-57
2024/02/08 05:31:10;;;;;;;0.45;0.20;;;;;;;;;;5054314;28;20021;-56
2024/02/08 05:33:40;;;;;;;0.90;0.45;;;;;;;;;;5053861;28;20047;-55
2024/02/08 05:36:06;;;;;;;0.93;0.45;;;;;;;;;;5054207;28;20116;-57
2024/02/08 05:38:37;;;;;;;0.73;0.35;;;;;;;;;;5053858;28;20120;-56
2024/02/08 05:41:05;;;;;;;1.92;0.30;;;;;;;;;;5054660;28;20071;-56
2024/02/08 05:43:41;;;;;;;1.42;0.55;;;;;;;;;;5053561;28;20429;-56
2024/02/08 05:46:07;;;;;;;1.00;0.40;;;;;;;;;;5054073;28;20021;-56
2024/02/08 05:48:33;;;;;;;0.28;0.10;;;;;;;;;;5054220;28;20413;-57
2024/02/08 05:51:02;;;;;;;1.17;0.30;;;;;;;;;;5053884;28;20032;-55
2024/02/08 05:53:32;;;;;;;0.43;0.20;;;;;;;;;;5053410;28;20467;-56
2024/02/08 05:55:59;;;;;;;0.55;0.30;;;;;;;;;;5053694;28;20088;-56
2024/02/08 05:58:27;;;;;;;0.95;0.43;;;;;;;;;;5053449;28;20043;-57
2024/02/08 06:00:55;;;;;;;0.77;0.30;;;;;;;;;;5053577;28;20028;-57
2024/02/08 06:03:37;;;;;;;0.60;0.30;;;;;;;;;;5054217;28;20032;-57
2024/02/08 06:06:06;;;;;;;1.17;0.40;;;;;;;;;;5053676;28;20375;-58
2024/02/08 06:08:42;;;;;;;1.30;0.43;;;;;;;;;;5053467;28;20074;-57
2024/02/08 06:11:22;;;;;;;0.40;0.20;;;;;;;;;;5053834;28;20348;-57
2024/02/08 06:13:58;;;;;;;0.80;0.25;;;;;;;;;;5054073;28;20025;-57
2024/02/08 06:16:46;;;;;;;1.05;0.30;;;;;;;;;;5053817;28;20116;-57
2024/02/08 06:19:14;;;;;;;0.60;0.25;;;;;;;;;;5053111;28;20025;-57
2024/02/08 06:21:41;;;;;;;2.10;0.60;;;;;;;;;;5053096;28;20029;-57
2024/02/08 06:26:56;;;;;;;2.20;0.30;;;;;;;;;;5056985;28;20059;-57
2024/02/08 06:29:27;;;;;;;0.98;0.47;;;;;;;;;;5056756;28;20053;-56
2024/02/08 06:32:23;;;;;;;0.30;0.15;;;;;;;;;;5057363;28;20363;-55
2024/02/08 06:34:52;;;;;;;0.73;0.40;;;;;;;;;;5056711;28;20037;-56
2024/02/08 06:37:29;;;;;;;0.38;0.10;;;;;;;;;;5056944;28;20031;-55
2024/02/08 06:39:56;;;;;;;0.52;0.20;;;;;;;;;;5057036;28;20032;-58
2024/02/08 06:48:31;;;;;;;0.75;0.43;;;;;;;;;;5056647;28;20492;-58
2024/02/08 07:37:25;;;;;;;4.07;0.50;;;;;;;;;;5055030;28;20128;-57
2024/02/08 07:39:53;;;;;;;0.55;0.30;;;;;;;;;;5055836;28;20443;-59
2024/02/08 07:45:12;;;;;;;0.77;0.45;;;;;;;;;;5055812;28;20046;-59
2024/02/08 07:47:39;;;;;;;1.25;0.50;;;;;;;;;;5055027;28;20577;-58
2024/02/08 07:50:05;;;;;;;1.17;0.55;;;;;;;;;;5055406;28;20033;-58
2024/02/08 07:52:46;;;;;;;1.58;0.70;;;;;;;;;;5055628;28;20017;-57
2024/02/08 07:55:58;;;;;;;1.00;0.45;;;;;;;;;;5055522;28;20383;-58
2024/02/08 07:58:07;;;;;;;1.98;0.70;;;;;;;;;;5054789;28;20036;-58
2024/02/08 08:03:09;;;;;;;1.48;0.77;;;;;;;;;;5055191;28;20029;-58
2024/02/08 08:05:42;;;;;;;1.58;0.60;;;;;;;;;;5055154;28;20086;-59
2024/02/08 08:08:24;;;;;;;2.50;0.70;;;;;;;;;;5055844;28;20029;-58
2024/02/08 08:10:57;;;;;;;1.08;0.40;;;;;;;;;;5055862;28;20025;-58
2024/02/08 08:18:57;;;;;;;1.15;0.52;;;;;;;;;;5054773;28;20036;-57
2024/02/08 08:21:25;;;;;;;1.05;0.30;;;;;;;;;;5054730;28;20138;-58
2024/02/08 08:23:59;;;;;;;0.80;0.40;;;;;;;;;;5054445;28;20025;-58
2024/02/08 08:26:37;;;;;;;1.25;0.50;;;;;;;;;;5055609;28;20017;-58
2024/02/08 08:29:04;;;;;;;1.00;0.50;;;;;;;;;;5055253;28;20025;-57
2024/02/08 08:31:37;;;;;;;4.30;0.68;;;;;;;;;;5055410;28;20025;-58
2024/02/08 08:36:58;;;;;;;2.38;1.20;;;;;;;;;;5054550;28;20028;-58
2024/02/08 08:42:23;;;;;;;0.73;0.30;;;;;;;;;;5054251;28;20473;-58
2024/02/08 08:44:51;;;;;;;0.85;0.40;;;;;;;;;;5054528;28;20017;-56
2024/02/08 08:47:17;;;;;;;1.73;0.40;;;;;;;;;;5054176;28;20021;-57
2024/02/08 08:49:43;;;;;;;0.90;0.35;;;;;;;;;;5054313;28;20029;-58
2024/02/08 08:52:15;;;;;;;1.65;0.32;;;;;;;;;;5054018;28;20056;-59
2024/02/08 08:54:56;;;;;;;0.73;0.30;;;;;;;;;;5055075;28;20025;-59
2024/02/08 08:57:25;;;;;;;0.57;0.20;;;;;;;;;;5054963;28;20390;-58
2024/02/08 08:59:52;;;;;;;1.75;0.77;;;;;;;;;;5053988;28;20282;-57
2024/02/08 09:02:21;;;;;;;0.93;0.40;;;;;;;;;;5054035;28;20033;-58
2024/02/08 09:04:47;;;;;;;0.75;0.32;;;;;;;;;;5054650;28;20409;-59
2024/02/08 09:07:13;;;;;;;0.88;0.35;;;;;;;;;;5054086;28;20025;-58
2024/02/08 09:09:57;;;;;;;1.30;0.65;;;;;;;;;;5054581;28;20033;-58
2024/02/08 09:12:36;;;;;;;0.80;0.55;;;;;;;;;;5054155;28;20375;-59
2024/02/08 09:15:19;;;;;;;0.47;0.28;;;;;;;;;;5054293;28;20029;-57
2024/02/08 09:17:51;;;;;;;0.70;0.30;;;;;;;;;;5054503;28;20116;-58
2024/02/08 09:20:20;;;;;;;0.28;0.10;;;;;;;;;;5053809;28;20028;-58
2024/02/08 09:22:49;;;;;;;0.98;0.55;;;;;;;;;;5054040;28;20033;-58
2024/02/08 09:25:25;;;;;;;2.33;0.80;;;;;;;;;;5053678;28;20051;-58
2024/02/08 09:27:56;;;;;;;0.55;0.35;;;;;;;;;;5054191;28;20029;-58
2024/02/08 09:30:38;;;;;;;0.45;0.20;;;;;;;;;;5054173;28;20036;-59
2024/02/08 09:33:14;;;;;;;0.98;0.47;;;;;;;;;;5054028;28;20032;-59
2024/02/08 09:35:41;;;;;;;0.82;0.28;;;;;;;;;;5053580;28;20120;-58
2024/02/08 09:38:07;;;;;;;0.65;0.35;;;;;;;;;;5054119;28;20079;-58
2024/02/08 09:43:16;;;;;;;0.40;0.22;;;;;;;;;;5053662;28;20029;-58
2024/02/08 09:45:43;;;;;;;0.52;0.20;;;;;;;;;;5054151;28;20538;-59
2024/02/08 09:48:11;;;;;;;0.80;0.30;;;;;;;;;;5054307;28;20029;-59
2024/02/08 09:50:37;;;;;;;0.20;0.13;;;;;;;;;;5053346;28;20021;-58
2024/02/08 09:53:15;;;;;;;0.47;0.40;;;;;;;;;;5053196;28;20463;-58
2024/02/08 09:55:55;;;;;;;0.47;0.20;;;;;;;;;;5053425;28;20094;-59
2024/02/08 09:58:33;;;;;;;0.50;0.32;;;;;;;;;;5053212;28;20475;-58
2024/02/08 10:00:59;;;;;;;0.43;0.22;;;;;;;;;;5058094;28;20040;-58
2024/02/08 10:03:32;;;;;;;1.48;0.50;;;;;;;;;;5057402;28;20534;-57
2024/02/08 10:06:56;;;;;;;0.75;0.35;;;;;;;;;;5057343;28;20032;-58
2024/02/08 10:09:08;;;;;;;0.55;0.20;;;;;;;;;;5056889;28;20041;-59
2024/02/08 10:11:38;;;;;;;0.38;0.20;;;;;;;;;;5057855;28;20033;-58
2024/02/08 10:14:24;;;;;;;0.70;0.30;;;;;;;;;;5057744;28;20037;-58
2024/02/08 10:16:53;;;;;;;1.30;0.50;;;;;;;;;;5057601;28;20407;-58
2024/02/08 10:19:35;;;;;;;0.60;0.28;;;;;;;;;;5056954;28;20079;-59
2024/02/08 10:22:26;;;;;;;0.70;0.32;;;;;;;;;;5057601;28;20071;-59
2024/02/08 10:27:21;;;;;;;0.85;0.30;;;;;;;;;;5056976;28;20351;-58
2024/02/08 10:29:56;;;;;;;3.75;0.45;;;;;;;;;;5057152;28;20060;-59
2024/02/08 10:32:27;;;;;;;0.30;0.17;;;;;;;;;;5056850;28;20033;-57
2024/02/08 10:34:53;;;;;;;0.90;0.30;;;;;;;;;;5057344;28;20029;-59
2024/02/08 10:40:28;;;;;;;0.60;0.30;;;;;;;;;;5056697;28;20086;-58
2024/02/08 10:42:58;;;;;;;0.20;0.10;;;;;;;;;;5056940;28;20040;-59
2024/02/08 10:45:24;;;;;;;1.13;0.45;;;;;;;;;;5057212;28;20371;-58
2024/02/08 10:47:52;;;;;;;0.40;0.10;;;;;;;;;;5056845;28;20021;-59
2024/02/08 10:50:27;;;;;;;0.40;0.17;;;;;;;;;;5054994;28;20037;-58
2024/02/08 10:52:54;;;;;;;0.17;0.10;;;;;;;;;;5056249;28;20021;-58
2024/02/08 10:55:30;;;;;;;1.17;0.38;;;;;;;;;;5055941;28;20021;-58
2024/02/08 11:03:08;;;;;;;1.13;0.20;;;;;;;;;;5056289;28;20462;-58
2024/02/08 11:05:48;;;;;;;0.40;0.20;;;;;;;;;;5057022;28;20028;-58
2024/02/08 11:08:24;;;;;;;0.22;0.10;;;;;;;;;;5056751;28;20132;-54
2024/02/08 11:10:52;;;;;;;0.35;0.20;;;;;;;;;;5055539;28;20025;-56
2024/02/08 11:13:29;;;;;;;0.30;0.10;;;;;;;;;;5056145;28;20048;-56
2024/02/08 11:15:57;;;;;;;0.77;0.13;;;;;;;;;;5056086;28;20485;-57
2024/02/08 11:18:33;;;;;;;0.35;0.20;;;;;;;;;;5056166;28;20108;-57
2024/02/08 11:21:04;;;;;;;3.08;0.30;;;;;;;;;;5056903;28;20467;-57
2024/02/08 11:23:31;;;;;;;0.63;0.30;;;;;;;;;;5055919;28;20079;-59
2024/02/08 11:25:57;;;;;;;0.50;0.22;;;;;;;;;;5055887;28;20032;-56
2024/02/08 11:28:43;;;;;;;0.73;0.30;;;;;;;;;;5055973;28;20025;-57
2024/02/08 11:31:13;;;;;;;0.82;0.30;;;;;;;;;;5056387;28;20025;-56
2024/02/08 11:33:40;;;;;;;0.57;0.22;;;;;;;;;;5055619;28;20084;-57
2024/02/08 11:36:12;;;;;;;0.68;0.10;;;;;;;;;;5055603;28;20391;-56
2024/02/08 11:38:40;;;;;;;0.40;0.25;;;;;;;;;;5055978;28;20040;-57
2024/02/08 11:41:09;;;;;;;0.22;0.20;;;;;;;;;;5055565;28;20029;-55
2024/02/08 11:43:36;;;;;;;0.65;0.25;;;;;;;;;;5055612;28;20039;-55
2024/02/08 11:46:04;;;;;;;0.25;0.10;;;;;;;;;;5055510;28;20522;-57
2024/02/08 11:48:31;;;;;;;0.38;0.20;;;;;;;;;;5056048;28;20040;-56
2024/02/08 11:51:02;;;;;;;0.43;0.25;;;;;;;;;;5055399;28;20463;-57
2024/02/08 11:53:32;;;;;;;0.50;0.20;;;;;;;;;;5056459;28;20356;-56
2024/02/08 11:56:02;;;;;;;0.90;0.50;;;;;;;;;;5055292;28;20090;-56
2024/02/08 11:58:29;;;;;;;0.38;0.25;;;;;;;;;;5055111;28;20324;-57
2024/02/08 12:00:56;;;;;;;0.57;0.20;;;;;;;;;;5055558;28;20041;-57
2024/02/08 12:03:22;;;;;;;5.47;0.35;;;;;;;;;;5055235;28;20374;-56
2024/02/08 12:05:57;;;;;;;0.52;0.22;;;;;;;;;;5055148;28;20033;-56
2024/02/08 12:08:23;;;;;;;0.10;0.10;;;;;;;;;;5055410;28;20375;-57
2024/02/08 12:10:50;;;;;;;1.10;0.35;;;;;;;;;;5054868;28;20025;-56
2024/02/08 12:13:16;;;;;;;0.28;0.20;;;;;;;;;;5054927;28;20025;-57
2024/02/08 12:15:48;;;;;;;0.85;0.30;;;;;;;;;;5055004;28;20029;-57
2024/02/08 12:18:14;;;;;;;0.45;0.30;;;;;;;;;;5055576;28;20040;-57
2024/02/08 12:20:43;;;;;;;0.55;0.30;;;;;;;;;;5055118;28;20028;-57
2024/02/08 12:23:09;;;;;;;2.20;0.40;;;;;;;;;;5054391;28;20021;-57
2024/02/08 12:25:35;;;;;;;0.85;0.25;;;;;;;;;;5054549;28;20100;-57
2024/02/08 12:28:06;;;;;;;2.78;0.65;;;;;;;;;;5055131;28;20065;-56
2024/02/08 12:30:36;;;;;;;2.28;0.70;;;;;;;;;;5054671;28;20029;-58
2024/02/08 12:33:07;;;;;;;0.93;0.28;;;;;;;;;;5055247;28;20033;-57
2024/02/08 12:35:35;;;;;;;1.25;0.47;;;;;;;;;;5055721;28;20151;-58
2024/02/08 12:38:03;;;;;;;2.63;0.65;;;;;;;;;;5054941;28;20021;-57
2024/02/08 12:40:32;;;;;;;2.28;0.75;;;;;;;;;;5054368;28;20112;-57
2024/02/08 12:42:58;;;;;;;2.10;0.77;;;;;;;;;;5054368;28;20025;-57
2024/02/08 12:45:25;;;;;;;1.38;0.47;;;;;;;;;;5054991;28;20021;-57
2024/02/08 12:47:54;;;;;;;3.35;0.50;;;;;;;;;;5055168;28;20028;-57
2024/02/08 12:50:21;;;;;;;1.35;0.50;;;;;;;;;;5054292;28;20061;-59
2024/02/08 12:52:54;;;;;;;4.38;1.30;;;;;;;;;;5054287;28;20370;-57
2024/02/08 12:55:22;;;;;;;2.35;0.52;;;;;;;;;;5054475;28;20032;-57
2024/02/08 12:58:01;;;;;;;2.67;0.93;;;;;;;;;;5054173;28;20538;-56
2024/02/08 13:00:27;;;;;;;0.70;0.30;;;;;;;;;;5054323;28;20033;-58
2024/02/08 13:02:54;;;;;;;3.05;1.02;;;;;;;;;;5054049;28;20482;-58
2024/02/08 13:05:22;;;;;;;1.58;0.60;;;;;;;;;;5054020;28;20462;-56
2024/02/08 13:08:00;;;;;;;3.25;0.77;;;;;;;;;;5054864;28;20082;-58
2024/02/08 13:10:28;;;;;;;3.05;0.88;;;;;;;;;;5053996;28;20044;-57
2024/02/08 13:13:04;;;;;;;1.73;0.82;;;;;;;;;;5054674;28;20024;-57
2024/02/08 13:15:33;;;;;;;4.82;0.98;;;;;;;;;;5053859;28;20032;-57
2024/02/08 13:17:59;;;;;;;5.05;1.00;;;;;;;;;;5053836;28;20032;-57
2024/02/08 13:20:26;;;;;;;4.07;1.10;;;;;;;;;;5054585;28;20025;-58
2024/02/08 13:22:52;;;;;;;3.53;0.90;;;;;;;;;;5053795;28;20037;-57
2024/02/08 13:25:21;;;;;;;1.88;1.02;;;;;;;;;;5053744;28;20029;-57
2024/02/08 13:27:50;;;;;;;5.35;1.50;;;;;;;;;;5054025;28;20456;-57
2024/02/08 13:30:16;;;;;;;6.38;1.52;;;;;;;;;;5054013;28;20040;-55
2024/02/08 13:32:44;;;;;;;2.22;1.02;;;;;;;;;;5053630;28;20032;-56
2024/02/08 13:35:18;;;;;;;2.05;0.98;;;;;;;;;;5053529;28;20029;-58
2024/02/08 13:37:43;;;;;;;4.60;1.17;;;;;;;;;;5054257;28;20036;-58
2024/02/08 13:40:10;;;;;;;2.78;0.98;;;;;;;;;;5053671;28;20029;-58
2024/02/08 13:42:38;;;;;;;3.85;1.35;;;;;;;;;;5053565;28;20107;-56
2024/02/08 13:45:05;;;;;;;3.53;1.13;;;;;;;;;;5053387;28;20463;-58
2024/02/08 13:47:37;;;;;;;2.47;1.52;;;;;;;;;;5054186;28;20036;-57
2024/02/08 13:50:10;;;;;;;6.93;1.70;;;;;;;;;;5053828;28;20044;-57
2024/02/08 13:52:37;;;;;;;5.57;1.58;;;;;;;;;;5053966;28;20075;-58
2024/02/08 13:55:07;;;;;;;1.73;1.10;;;;;;;;;;5053566;28;20458;-57
2024/02/08 13:57:33;;;;;;;2.77;1.10;;;;;;;;;;5053438;28;20045;-57
2024/02/08 14:00:03;;;;;;;5.88;1.67;;;;;;;;;;5054085;28;20037;-57
2024/02/08 14:02:36;;;;;;;8.85;2.13;;;;;;;;;;5053501;28;20525;-57
2024/02/08 14:05:16;;;;;;;3.85;1.17;;;;;;;;;;5053613;28;20166;-57
2024/02/08 14:07:43;;;;;;;4.85;1.90;;;;;;;;;;5053814;28;20013;-58
2024/02/08 14:10:12;;;;;;;5.68;1.35;;;;;;;;;;5053850;28;20040;-58
2024/02/08 14:12:45;;;;;;;4.55;1.38;;;;;;;;;;5053973;28;20025;-58
2024/02/08 14:15:11;;;;;;;3.92;1.70;;;;;;;;;;5053015;28;20025;-56
2024/02/08 14:17:40;;;;;;;7.45;2.13;;;;;;;;;;5052891;28;20032;-57
2024/02/08 14:20:30;;;;;;;7.13;1.88;;;;;;;;;;5053256;28;20040;-57
2024/02/08 14:23:01;;;;;;;2.53;1.30;;;;;;;;;;5052884;28;20040;-57
2024/02/08 14:25:37;;;;;;;6.00;1.83;;;;;;;;;;5053070;28;20024;-56
2024/02/08 14:28:09;;;;;;;8.93;2.08;;;;;;;;;;5053003;28;20624;-57
2024/02/08 14:30:35;;;;;;;9.52;2.42;;;;;;;;;;5053748;28;20098;-56
2024/02/08 14:33:01;;;;;;;3.17;1.30;;;;;;;;;;5053507;28;20461;-57
2024/02/08 14:35:31;;;;;;;4.82;1.63;;;;;;;;;;5052580;28;20048;-57
2024/02/08 14:37:57;;;;;;;11.73;1.67;;;;;;;;;;5052906;28;20036;-57
2024/02/08 14:40:26;;;;;;;3.58;1.70;;;;;;;;;;5052917;28;20029;-58
2024/02/08 14:42:56;;;;;;;6.80;1.33;;;;;;;;;;5052987;28;20033;-58
2024/02/08 14:45:24;;;;;;;4.68;2.03;;;;;;;;;;5054468;28;20028;-56
2024/02/08 14:47:52;;;;;;;4.78;1.65;;;;;;;;;;5057339;28;20033;-58
2024/02/08 14:53:04;;;;;;;9.00;2.13;;;;;;;;;;5056836;28;20031;-57
2024/02/08 14:55:35;;;;;;;9.38;2.35;;;;;;;;;;5056576;28;20040;-57
2024/02/08 14:58:01;;;;;;;6.43;1.85;;;;;;;;;;5056692;28;20434;-57
2024/02/08 15:02:56;;;;;;;9.50;2.72;;;;;;;;;;5056122;28;20033;-57
2024/02/08 15:05:46;;;;;;;5.97;2.33;;;;;;;;;;5056206;28;20375;-58
2024/02/08 15:10:48;;;;;;;6.32;1.75;;;;;;;;;;5056201;28;20037;-58
2024/02/08 15:13:18;;;;;;;5.47;1.90;;;;;;;;;;5056581;28;20025;-58
2024/02/08 15:15:50;;;;;;;3.20;1.60;;;;;;;;;;5056391;28;20033;-58
2024/02/08 15:18:30;;;;;;;4.75;1.98;;;;;;;;;;5056410;28;20487;-58
2024/02/08 15:20:56;;;;;;;5.65;2.20;;;;;;;;;;5056522;28;20033;-55
2024/02/08 15:23:47;;;;;;;8.65;2.58;;;;;;;;;;5056224;28;20478;-58
2024/02/08 15:26:14;;;;;;;8.73;2.78;;;;;;;;;;5056268;28;20074;-58
2024/02/08 15:28:45;;;;;;;4.47;1.70;;;;;;;;;;5055443;28;20126;-58
2024/02/08 15:42:09;;;;;;;9.82;2.22;;;;;;;;;;5055711;28;20033;-57
2024/02/08 15:44:35;;;;;;;6.55;3.17;;;;;;;;;;5056200;28;20025;-58
2024/02/08 15:47:10;;;;;;;11.63;1.80;;;;;;;;;;5055510;28;20025;-58
2024/02/08 15:49:37;;;;;;;11.32;2.92;;;;;;;;;;5055536;28;20039;-58
2024/02/08 15:52:04;;;;;;;10.75;2.28;;;;;;;;;;5055149;28;20115;-57
2024/02/08 15:54:38;;;;;;;9.73;2.35;;;;;;;;;;5055681;28;20032;-57
2024/02/08 15:57:10;;;;;;;7.35;2.92;;;;;;;;;;5055479;28;20057;-57
2024/02/08 15:59:36;;;;;;;4.22;2.65;;;;;;;;;;5055707;28;20079;-58
2024/02/08 16:02:05;;;;;;;7.35;3.03;;;;;;;;;;5055503;28;20033;-56
2024/02/08 16:05:13;;;;;;;15.30;2.70;;;;;;;;;;5055987;28;20032;-58
2024/02/08 16:07:27;;;;;;;8.05;2.58;;;;;;;;;;5054934;28;20447;-56
2024/02/08 16:09:59;;;;;;;8.60;2.35;;;;;;;;;;5055910;28;20040;-58
2024/02/08 16:15:00;;;;;;;7.40;2.50;;;;;;;;;;5055025;28;20033;-57
2024/02/08 16:20:23;;;;;;;8.82;2.28;;;;;;;;;;5054951;28;20033;-58
2024/02/08 16:22:52;;;;;;;7.20;2.53;;;;;;;;;;5054727;28;20146;-58
2024/02/08 16:25:23;;;;;;;8.82;2.60;;;;;;;;;;5054717;28;20070;-58
2024/02/08 16:27:56;;;;;;;10.38;2.78;;;;;;;;;;5055015;28;20434;-57
2024/02/08 16:30:28;;;;;;;7.10;1.95;;;;;;;;;;5055546;28;20040;-57
2024/02/08 16:33:08;;;;;;;8.60;2.30;;;;;;;;;;5054976;28;20036;-57
2024/02/08 16:35:41;;;;;;;7.85;1.98;;;;;;;;;;5055455;28;20461;-58
2024/02/08 16:38:08;;;;;;;9.23;2.90;;;;;;;;;;5054752;28;20032;-58
2024/02/08 16:40:43;;;;;;;6.90;2.88;;;;;;;;;;5054886;28;20028;-58
2024/02/08 16:43:17;;;;;;;9.20;3.67;;;;;;;;;;5054394;28;20064;-58
2024/02/08 16:45:56;;;;;;;8.75;2.13;;;;;;;;;;5054716;28;20032;-58
2024/02/08 16:48:33;;;;;;;6.05;2.47;;;;;;;;;;5054968;28;20028;-57
2024/02/08 16:51:09;;;;;;;9.35;2.80;;;;;;;;;;5055120;28;20112;-58
2024/02/08 16:53:43;;;;;;;11.02;3.40;;;;;;;;;;5054846;28;20060;-58
2024/02/08 16:56:12;;;;;;;10.13;2.38;;;;;;;;;;5054653;28;20049;-58
2024/02/08 16:58:43;;;;;;;8.43;2.50;;;;;;;;;;5054074;28;20025;-57
2024/02/08 17:01:21;;;;;;;7.05;3.00;;;;;;;;;;5054730;28;20124;-58
2024/02/08 17:03:51;;;;;;;12.70;3.58;;;;;;;;;;5054585;28;20033;-58
2024/02/08 17:06:18;;;;;;;12.05;3.00;;;;;;;;;;5054352;28;20028;-58
2024/02/08 17:09:00;;;;;;;6.82;3.13;;;;;;;;;;5054165;28;20093;-58
2024/02/08 17:11:31;;;;;;;6.47;2.33;;;;;;;;;;5054799;28;20052;-58
2024/02/08 17:13:58;;;;;;;10.68;2.80;;;;;;;;;;5053986;28;20040;-58
2024/02/08 17:16:25;;;;;;;6.60;3.28;;;;;;;;;;5054295;28;20025;-59
2024/02/08 17:22:07;;;;;;;8.23;2.80;;;;;;;;;;5053669;28;20052;-59
2024/02/08 17:27:18;;;;;;;10.18;2.15;;;;;;;;;;5053812;28;20108;-58
2024/02/08 17:29:51;;;;;;;5.57;2.25;;;;;;;;;;5053579;28;20455;-59
2024/02/08 17:32:24;;;;;;;9.02;2.63;;;;;;;;;;5053892;28;20108;-58
2024/02/08 17:34:50;;;;;;;8.55;3.05;;;;;;;;;;5054479;28;20025;-58
2024/02/08 17:37:30;;;;;;;10.43;3.03;;;;;;;;;;5053586;28;20087;-58
2024/02/08 17:39:56;;;;;;;5.53;1.88;;;;;;;;;;5053892;28;20033;-58